Hovedside
METAR-TAF:

METAR-TAF

Lufthavner :

Kairo, Egypt

breddegrad: 30-08N, lengdegrad: 031-24E, høyde over havet: 64 m

Gjeldene værobservasjon

Denne rapporten ble laget for 15 minutter siden, klokken 21:00 UTC
Flau vind
Temperatur 21°C
Luftfuktighet 38%
Trykk 1019 hPa
Sikt: 2000 m
dis

METAR: HECA 282100Z 00000KT 2000 HZ NSC 21/06 Q1019 NOSIG

Tid: 23:15 (21:15 UTC)

Varsel

Denne rapporten ble laget for 4 timer og 15 minutter siden, klokken 17:00 UTC
Varsel gyldig fra 28. klokken 18 UTC til 29. klokken 24 UTC
Vind 7 kt fra Nordvest
Sikt: 6000 m
Midlertidig
fra 28. klokken 18 UTC til 29. klokken 08 UTC
Vind 3 kt fra skiftende retning
Sikt: 3000 m
dis
Sannsynlighet 40%
fra 28. klokken 22 UTC til 29. klokken 07 UTC
Sikt: 1000 m

TAF: HECA 281700Z 2818/2924 31007KT 6000 NSC TEMPO 2818/2908 VRB03KT 3000 HZ PROB40 2822/2907 1000

Værobservasjoner og værvarsel for over 4000 flyplasser (METAR- og TAF-rapporter).

Tilgjengelige stasjoner er representert av de røde og gule prikkene på kartet.

Hold musepekeren over prikken for å se navnet på stasjonen.

Klikk så for å se værobservasjoner og -varsler.

For å forandre kartet kan du klikke på den grønne knappen med svart kryss for å zoome inn, på den grønne knappen med strek for å zoome ut, eller på de grønne pilene for å se tilstøtende kart.


METAR-TAF: